sensor_id;sensor_type;location;lat;lon;timestamp;P1;durP1;ratioP1;P2;durP2;ratioP2
17921;SDS011;9086;50.966;3.144;2022-09-29T00:01:23;1.40;;;1.20;;
17921;SDS011;9086;50.966;3.144;2022-09-29T00:03:49;1.50;;;1.40;;
17921;SDS011;9086;50.966;3.144;2022-09-29T00:06:16;2.10;;;1.80;;
17921;SDS011;9086;50.966;3.144;2022-09-29T00:08:43;2.67;;;1.70;;
17921;SDS011;9086;50.966;3.144;2022-09-29T00:11:11;1.77;;;1.67;;
17921;SDS011;9086;50.966;3.144;2022-09-29T00:13:37;1.80;;;1.70;;
17921;SDS011;9086;50.966;3.144;2022-09-29T00:16:04;1.73;;;1.63;;
17921;SDS011;9086;50.966;3.144;2022-09-29T00:18:30;2.70;;;1.80;;
17921;SDS011;9086;50.966;3.144;2022-09-29T00:20:57;1.97;;;1.87;;
17921;SDS011;9086;50.966;3.144;2022-09-29T00:23:24;2.20;;;2.10;;
17921;SDS011;9086;50.966;3.144;2022-09-29T00:26:00;1.90;;;1.80;;
17921;SDS011;9086;50.966;3.144;2022-09-29T00:28:26;1.80;;;1.70;;
17921;SDS011;9086;50.966;3.144;2022-09-29T00:30:52;1.73;;;1.63;;
17921;SDS011;9086;50.966;3.144;2022-09-29T00:33:18;1.83;;;1.60;;
17921;SDS011;9086;50.966;3.144;2022-09-29T00:35:54;2.60;;;2.40;;
17921;SDS011;9086;50.966;3.144;2022-09-29T00:38:20;1.60;;;1.50;;
17921;SDS011;9086;50.966;3.144;2022-09-29T00:40:47;2.10;;;1.90;;
17921;SDS011;9086;50.966;3.144;2022-09-29T00:43:17;2.53;;;1.80;;
17921;SDS011;9086;50.966;3.144;2022-09-29T00:45:44;1.80;;;1.70;;
17921;SDS011;9086;50.966;3.144;2022-09-29T00:48:14;1.80;;;1.70;;
17921;SDS011;9086;50.966;3.144;2022-09-29T00:50:47;2.07;;;1.90;;
17921;SDS011;9086;50.966;3.144;2022-09-29T00:53:15;2.13;;;1.73;;
17921;SDS011;9086;50.966;3.144;2022-09-29T00:55:42;1.97;;;1.77;;
17921;SDS011;9086;50.966;3.144;2022-09-29T00:58:12;2.43;;;1.77;;
17921;SDS011;9086;50.966;3.144;2022-09-29T01:00:43;2.00;;;1.90;;
17921;SDS011;9086;50.966;3.144;2022-09-29T01:03:13;1.83;;;1.73;;
17921;SDS011;9086;50.966;3.144;2022-09-29T01:05:44;1.90;;;1.80;;
17921;SDS011;9086;50.966;3.144;2022-09-29T01:08:13;2.20;;;2.00;;
17921;SDS011;9086;50.966;3.144;2022-09-29T01:10:41;2.40;;;2.13;;
17921;SDS011;9086;50.966;3.144;2022-09-29T01:13:08;2.03;;;1.93;;
17921;SDS011;9086;50.966;3.144;2022-09-29T01:15:34;2.13;;;1.93;;
17921;SDS011;9086;50.966;3.144;2022-09-29T01:18:00;2.07;;;1.90;;
17921;SDS011;9086;50.966;3.144;2022-09-29T01:20:26;2.17;;;2.07;;
17921;SDS011;9086;50.966;3.144;2022-09-29T01:28:35;2.10;;;2.00;;
17921;SDS011;9086;50.966;3.144;2022-09-29T01:31:17;2.20;;;2.10;;
17921;SDS011;9086;50.966;3.144;2022-09-29T01:41:20;2.17;;;1.73;;
17921;SDS011;9086;50.966;3.144;2022-09-29T01:43:53;2.03;;;1.73;;
17921;SDS011;9086;50.966;3.144;2022-09-29T01:46:26;1.50;;;1.40;;
17921;SDS011;9086;50.966;3.144;2022-09-29T01:48:54;1.70;;;1.60;;
17921;SDS011;9086;50.966;3.144;2022-09-29T01:51:24;1.70;;;1.60;;
17921;SDS011;9086;50.966;3.144;2022-09-29T01:53:52;1.57;;;1.47;;
17921;SDS011;9086;50.966;3.144;2022-09-29T01:56:31;1.60;;;1.50;;
17921;SDS011;9086;50.966;3.144;2022-09-29T01:59:00;2.10;;;1.53;;
17921;SDS011;9086;50.966;3.144;2022-09-29T02:01:30;1.60;;;1.50;;
17921;SDS011;9086;50.966;3.144;2022-09-29T02:04:01;1.67;;;1.33;;
17921;SDS011;9086;50.966;3.144;2022-09-29T02:06:31;1.80;;;1.70;;
17921;SDS011;9086;50.966;3.144;2022-09-29T02:09:03;1.50;;;1.20;;
17921;SDS011;9086;50.966;3.144;2022-09-29T02:11:32;1.40;;;1.30;;
17921;SDS011;9086;50.966;3.144;2022-09-29T02:16:36;1.30;;;1.20;;
17921;SDS011;9086;50.966;3.144;2022-09-29T02:21:30;1.53;;;0.93;;
17921;SDS011;9086;50.966;3.144;2022-09-29T02:23:56;1.47;;;1.00;;
17921;SDS011;9086;50.966;3.144;2022-09-29T02:26:23;1.73;;;1.20;;
17921;SDS011;9086;50.966;3.144;2022-09-29T02:28:50;1.30;;;1.23;;
17921;SDS011;9086;50.966;3.144;2022-09-29T02:31:17;2.20;;;1.53;;
17921;SDS011;9086;50.966;3.144;2022-09-29T02:33:43;1.80;;;1.57;;
17921;SDS011;9086;50.966;3.144;2022-09-29T02:41:06;3.40;;;2.00;;
17921;SDS011;9086;50.966;3.144;2022-09-29T02:51:01;3.17;;;2.97;;
17921;SDS011;9086;50.966;3.144;2022-09-29T02:53:38;2.83;;;2.63;;
17921;SDS011;9086;50.966;3.144;2022-09-29T02:56:20;2.67;;;2.47;;
17921;SDS011;9086;50.966;3.144;2022-09-29T02:58:59;2.73;;;2.53;;
17921;SDS011;9086;50.966;3.144;2022-09-29T03:01:29;2.33;;;2.13;;
17921;SDS011;9086;50.966;3.144;2022-09-29T03:03:55;2.67;;;2.47;;
17921;SDS011;9086;50.966;3.144;2022-09-29T03:06:21;2.33;;;2.13;;
17921;SDS011;9086;50.966;3.144;2022-09-29T03:08:47;1.70;;;1.60;;
17921;SDS011;9086;50.966;3.144;2022-09-29T03:11:13;1.80;;;1.70;;
17921;SDS011;9086;50.966;3.144;2022-09-29T03:13:40;1.77;;;1.67;;
17921;SDS011;9086;50.966;3.144;2022-09-29T03:16:06;2.00;;;1.90;;
17921;SDS011;9086;50.966;3.144;2022-09-29T03:18:32;3.17;;;1.57;;
17921;SDS011;9086;50.966;3.144;2022-09-29T03:20:58;2.13;;;1.63;;
17921;SDS011;9086;50.966;3.144;2022-09-29T03:23:24;1.77;;;1.60;;
17921;SDS011;9086;50.966;3.144;2022-09-29T03:25:50;2.70;;;1.80;;
17921;SDS011;9086;50.966;3.144;2022-09-29T03:28:16;1.90;;;1.80;;
17921;SDS011;9086;50.966;3.144;2022-09-29T03:30:42;1.90;;;1.80;;
17921;SDS011;9086;50.966;3.144;2022-09-29T03:33:09;3.37;;;1.70;;
17921;SDS011;9086;50.966;3.144;2022-09-29T03:35:36;2.37;;;1.80;;
17921;SDS011;9086;50.966;3.144;2022-09-29T03:38:02;2.57;;;2.20;;
17921;SDS011;9086;50.966;3.144;2022-09-29T03:40:28;2.80;;;2.20;;
17921;SDS011;9086;50.966;3.144;2022-09-29T03:42:54;2.43;;;2.07;;
17921;SDS011;9086;50.966;3.144;2022-09-29T03:45:20;2.20;;;2.10;;
17921;SDS011;9086;50.966;3.144;2022-09-29T03:47:46;3.73;;;1.97;;
17921;SDS011;9086;50.966;3.144;2022-09-29T03:50:12;2.17;;;2.07;;
17921;SDS011;9086;50.966;3.144;2022-09-29T03:52:38;2.20;;;2.10;;
17921;SDS011;9086;50.966;3.144;2022-09-29T03:55:04;2.20;;;2.00;;
17921;SDS011;9086;50.966;3.144;2022-09-29T03:57:31;2.40;;;2.20;;
17921;SDS011;9086;50.966;3.144;2022-09-29T03:59:57;2.27;;;2.07;;
17921;SDS011;9086;50.966;3.144;2022-09-29T04:02:23;3.10;;;2.30;;
17921;SDS011;9086;50.966;3.144;2022-09-29T04:04:49;2.30;;;2.10;;
17921;SDS011;9086;50.966;3.144;2022-09-29T04:07:15;1.90;;;1.80;;
17921;SDS011;9086;50.966;3.144;2022-09-29T04:09:41;1.80;;;1.70;;
17921;SDS011;9086;50.966;3.144;2022-09-29T04:12:07;2.47;;;2.37;;
17921;SDS011;9086;50.966;3.144;2022-09-29T04:14:33;2.20;;;2.10;;
17921;SDS011;9086;50.966;3.144;2022-09-29T04:16:59;2.57;;;2.13;;
17921;SDS011;9086;50.966;3.144;2022-09-29T04:19:25;2.37;;;2.27;;
17921;SDS011;9086;50.966;3.144;2022-09-29T04:21:51;3.30;;;3.10;;
17921;SDS011;9086;50.966;3.144;2022-09-29T04:24:17;2.67;;;2.30;;
17921;SDS011;9086;50.966;3.144;2022-09-29T04:26:43;2.70;;;2.40;;
17921;SDS011;9086;50.966;3.144;2022-09-29T04:29:10;2.60;;;2.40;;
17921;SDS011;9086;50.966;3.144;2022-09-29T04:31:36;3.33;;;2.17;;
17921;SDS011;9086;50.966;3.144;2022-09-29T04:34:02;3.73;;;3.10;;
17921;SDS011;9086;50.966;3.144;2022-09-29T04:36:28;4.20;;;3.80;;
17921;SDS011;9086;50.966;3.144;2022-09-29T04:38:54;4.27;;;3.90;;
17921;SDS011;9086;50.966;3.144;2022-09-29T04:41:20;4.53;;;4.13;;
17921;SDS011;9086;50.966;3.144;2022-09-29T04:43:46;4.73;;;4.33;;
17921;SDS011;9086;50.966;3.144;2022-09-29T04:46:12;5.23;;;4.77;;
17921;SDS011;9086;50.966;3.144;2022-09-29T04:48:39;5.10;;;4.70;;
17921;SDS011;9086;50.966;3.144;2022-09-29T04:51:05;5.90;;;4.57;;
17921;SDS011;9086;50.966;3.144;2022-09-29T04:53:32;5.17;;;4.77;;
17921;SDS011;9086;50.966;3.144;2022-09-29T04:55:58;4.97;;;4.57;;
17921;SDS011;9086;50.966;3.144;2022-09-29T04:58:24;5.63;;;4.50;;
17921;SDS011;9086;50.966;3.144;2022-09-29T05:00:50;6.23;;;4.90;;
17921;SDS011;9086;50.966;3.144;2022-09-29T05:03:16;5.40;;;4.90;;
17921;SDS011;9086;50.966;3.144;2022-09-29T05:05:42;5.53;;;4.70;;
17921;SDS011;9086;50.966;3.144;2022-09-29T05:08:08;5.30;;;4.90;;
17921;SDS011;9086;50.966;3.144;2022-09-29T05:10:34;5.50;;;5.00;;
17921;SDS011;9086;50.966;3.144;2022-09-29T05:13:00;5.13;;;4.63;;
17921;SDS011;9086;50.966;3.144;2022-09-29T05:15:26;5.27;;;4.77;;
17921;SDS011;9086;50.966;3.144;2022-09-29T05:17:52;5.90;;;5.47;;
17921;SDS011;9086;50.966;3.144;2022-09-29T05:20:19;5.73;;;5.10;;
17921;SDS011;9086;50.966;3.144;2022-09-29T05:22:45;5.83;;;5.27;;
17921;SDS011;9086;50.966;3.144;2022-09-29T05:25:11;5.50;;;5.10;;
17921;SDS011;9086;50.966;3.144;2022-09-29T05:27:37;6.10;;;5.50;;
17921;SDS011;9086;50.966;3.144;2022-09-29T05:30:03;5.10;;;4.70;;
17921;SDS011;9086;50.966;3.144;2022-09-29T05:32:29;5.80;;;5.30;;
17921;SDS011;9086;50.966;3.144;2022-09-29T05:34:55;6.30;;;5.73;;
17921;SDS011;9086;50.966;3.144;2022-09-29T05:37:22;5.73;;;5.33;;
17921;SDS011;9086;50.966;3.144;2022-09-29T05:39:48;5.90;;;5.40;;
17921;SDS011;9086;50.966;3.144;2022-09-29T05:42:14;5.57;;;5.10;;
17921;SDS011;9086;50.966;3.144;2022-09-29T05:44:40;7.30;;;5.93;;
17921;SDS011;9086;50.966;3.144;2022-09-29T05:47:06;5.27;;;4.90;;
17921;SDS011;9086;50.966;3.144;2022-09-29T05:49:32;6.00;;;5.33;;
17921;SDS011;9086;50.966;3.144;2022-09-29T05:52:00;5.47;;;5.07;;
17921;SDS011;9086;50.966;3.144;2022-09-29T05:54:26;6.57;;;5.43;;
17921;SDS011;9086;50.966;3.144;2022-09-29T05:56:53;5.47;;;5.07;;
17921;SDS011;9086;50.966;3.144;2022-09-29T05:59:20;5.73;;;5.17;;
17921;SDS011;9086;50.966;3.144;2022-09-29T06:01:46;5.30;;;4.90;;
17921;SDS011;9086;50.966;3.144;2022-09-29T06:04:12;6.20;;;4.97;;
17921;SDS011;9086;50.966;3.144;2022-09-29T06:06:38;7.07;;;5.93;;
17921;SDS011;9086;50.966;3.144;2022-09-29T06:09:04;7.37;;;6.10;;
17921;SDS011;9086;50.966;3.144;2022-09-29T06:11:31;8.20;;;5.50;;
17921;SDS011;9086;50.966;3.144;2022-09-29T06:13:57;6.03;;;5.43;;
17921;SDS011;9086;50.966;3.144;2022-09-29T06:16:25;5.73;;;5.27;;
17921;SDS011;9086;50.966;3.144;2022-09-29T06:18:51;6.13;;;5.53;;
17921;SDS011;9086;50.966;3.144;2022-09-29T06:21:18;6.23;;;5.00;;
17921;SDS011;9086;50.966;3.144;2022-09-29T06:23:45;6.47;;;5.80;;
17921;SDS011;9086;50.966;3.144;2022-09-29T06:26:16;6.00;;;5.50;;
17921;SDS011;9086;50.966;3.144;2022-09-29T06:28:42;6.60;;;6.00;;
17921;SDS011;9086;50.966;3.144;2022-09-29T06:31:26;7.40;;;5.80;;
17921;SDS011;9086;50.966;3.144;2022-09-29T06:33:55;6.43;;;5.93;;
17921;SDS011;9086;50.966;3.144;2022-09-29T06:36:40;6.03;;;5.53;;
17921;SDS011;9086;50.966;3.144;2022-09-29T06:39:28;5.57;;;5.07;;
17921;SDS011;9086;50.966;3.144;2022-09-29T06:41:54;8.70;;;5.80;;
17921;SDS011;9086;50.966;3.144;2022-09-29T06:44:21;6.43;;;5.87;;
17921;SDS011;9086;50.966;3.144;2022-09-29T06:46:51;6.80;;;6.10;;
17921;SDS011;9086;50.966;3.144;2022-09-29T06:49:18;6.73;;;6.13;;
17921;SDS011;9086;50.966;3.144;2022-09-29T06:51:44;6.90;;;6.17;;
17921;SDS011;9086;50.966;3.144;2022-09-29T06:54:11;7.07;;;6.37;;
17921;SDS011;9086;50.966;3.144;2022-09-29T06:56:37;6.53;;;6.03;;
17921;SDS011;9086;50.966;3.144;2022-09-29T06:59:03;6.53;;;5.93;;
17921;SDS011;9086;50.966;3.144;2022-09-29T07:01:30;6.20;;;5.63;;
17921;SDS011;9086;50.966;3.144;2022-09-29T07:03:56;6.13;;;5.53;;
17921;SDS011;9086;50.966;3.144;2022-09-29T07:06:24;7.60;;;6.03;;
17921;SDS011;9086;50.966;3.144;2022-09-29T07:08:54;7.37;;;6.67;;
17921;SDS011;9086;50.966;3.144;2022-09-29T07:11:20;6.67;;;6.17;;
17921;SDS011;9086;50.966;3.144;2022-09-29T07:13:46;7.00;;;6.40;;
17921;SDS011;9086;50.966;3.144;2022-09-29T07:16:13;6.00;;;5.50;;
17921;SDS011;9086;50.966;3.144;2022-09-29T07:18:39;6.60;;;5.33;;
17921;SDS011;9086;50.966;3.144;2022-09-29T07:21:07;6.13;;;5.53;;
17921;SDS011;9086;50.966;3.144;2022-09-29T07:23:37;7.17;;;5.90;;
17921;SDS011;9086;50.966;3.144;2022-09-29T07:26:03;5.17;;;4.67;;
17921;SDS011;9086;50.966;3.144;2022-09-29T07:28:30;5.80;;;4.60;;
17921;SDS011;9086;50.966;3.144;2022-09-29T07:33:25;5.63;;;5.00;;
17921;SDS011;9086;50.966;3.144;2022-09-29T07:35:52;5.40;;;4.97;;
17921;SDS011;9086;50.966;3.144;2022-09-29T07:38:23;5.47;;;4.97;;
17921;SDS011;9086;50.966;3.144;2022-09-29T07:40:49;5.10;;;4.60;;
17921;SDS011;9086;50.966;3.144;2022-09-29T07:43:16;6.40;;;4.90;;
17921;SDS011;9086;50.966;3.144;2022-09-29T07:45:46;5.33;;;4.93;;
17921;SDS011;9086;50.966;3.144;2022-09-29T07:48:12;5.17;;;4.77;;
17921;SDS011;9086;50.966;3.144;2022-09-29T07:50:39;5.50;;;5.07;;
17921;SDS011;9086;50.966;3.144;2022-09-29T07:53:05;4.87;;;4.40;;
17921;SDS011;9086;50.966;3.144;2022-09-29T07:55:31;5.53;;;4.47;;
17921;SDS011;9086;50.966;3.144;2022-09-29T07:57:57;4.10;;;3.80;;
17921;SDS011;9086;50.966;3.144;2022-09-29T08:00:23;4.53;;;4.07;;
17921;SDS011;9086;50.966;3.144;2022-09-29T08:02:49;4.23;;;3.83;;
17921;SDS011;9086;50.966;3.144;2022-09-29T08:05:15;5.10;;;4.53;;
17921;SDS011;9086;50.966;3.144;2022-09-29T08:07:42;4.77;;;4.37;;
17921;SDS011;9086;50.966;3.144;2022-09-29T08:10:08;4.70;;;4.40;;
17921;SDS011;9086;50.966;3.144;2022-09-29T08:12:34;5.37;;;3.90;;
17921;SDS011;9086;50.966;3.144;2022-09-29T08:15:00;4.57;;;4.13;;
17921;SDS011;9086;50.966;3.144;2022-09-29T08:17:26;5.00;;;4.23;;
17921;SDS011;9086;50.966;3.144;2022-09-29T08:19:52;4.20;;;3.90;;
17921;SDS011;9086;50.966;3.144;2022-09-29T08:22:18;4.13;;;3.83;;
17921;SDS011;9086;50.966;3.144;2022-09-29T08:24:45;4.50;;;4.20;;
17921;SDS011;9086;50.966;3.144;2022-09-29T08:27:11;5.10;;;4.27;;
17921;SDS011;9086;50.966;3.144;2022-09-29T08:29:37;5.03;;;4.53;;
17921;SDS011;9086;50.966;3.144;2022-09-29T08:32:03;4.73;;;4.33;;
17921;SDS011;9086;50.966;3.144;2022-09-29T08:34:29;4.60;;;4.20;;
17921;SDS011;9086;50.966;3.144;2022-09-29T08:36:55;7.40;;;4.20;;
17921;SDS011;9086;50.966;3.144;2022-09-29T08:39:21;5.00;;;4.60;;
17921;SDS011;9086;50.966;3.144;2022-09-29T08:44:37;4.87;;;4.47;;
17921;SDS011;9086;50.966;3.144;2022-09-29T08:49:32;4.47;;;4.00;;
17921;SDS011;9086;50.966;3.144;2022-09-29T08:52:03;3.83;;;3.53;;
17921;SDS011;9086;50.966;3.144;2022-09-29T08:54:35;4.43;;;4.13;;
17921;SDS011;9086;50.966;3.144;2022-09-29T08:57:03;4.23;;;3.93;;
17921;SDS011;9086;50.966;3.144;2022-09-29T08:59:30;5.73;;;4.67;;
17921;SDS011;9086;50.966;3.144;2022-09-29T09:04:38;5.67;;;4.23;;
17921;SDS011;9086;50.966;3.144;2022-09-29T09:07:29;4.40;;;4.10;;
17921;SDS011;9086;50.966;3.144;2022-09-29T09:10:02;4.73;;;4.33;;
17921;SDS011;9086;50.966;3.144;2022-09-29T09:15:12;5.00;;;4.60;;
17921;SDS011;9086;50.966;3.144;2022-09-29T09:17:52;5.07;;;4.63;;
17921;SDS011;9086;50.966;3.144;2022-09-29T09:20:32;4.73;;;4.33;;
17921;SDS011;9086;50.966;3.144;2022-09-29T09:23:10;4.30;;;3.90;;
17921;SDS011;9086;50.966;3.144;2022-09-29T09:25:43;3.43;;;2.77;;
17921;SDS011;9086;50.966;3.144;2022-09-29T09:28:13;6.33;;;2.57;;
17921;SDS011;9086;50.966;3.144;2022-09-29T09:30:55;3.83;;;2.80;;
17921;SDS011;9086;50.966;3.144;2022-09-29T09:33:29;3.07;;;2.63;;
17921;SDS011;9086;50.966;3.144;2022-09-29T09:35:58;3.20;;;2.70;;
17921;SDS011;9086;50.966;3.144;2022-09-29T09:38:40;4.40;;;3.00;;
17921;SDS011;9086;50.966;3.144;2022-09-29T09:41:09;4.33;;;3.03;;
17921;SDS011;9086;50.966;3.144;2022-09-29T09:43:41;3.87;;;2.87;;
17921;SDS011;9086;50.966;3.144;2022-09-29T09:46:12;3.33;;;3.00;;
17921;SDS011;9086;50.966;3.144;2022-09-29T09:48:42;3.97;;;2.90;;
17921;SDS011;9086;50.966;3.144;2022-09-29T09:51:44;3.67;;;2.90;;
17921;SDS011;9086;50.966;3.144;2022-09-29T09:54:08;3.13;;;2.70;;
17921;SDS011;9086;50.966;3.144;2022-09-29T10:01:46;3.90;;;3.17;;
17921;SDS011;9086;50.966;3.144;2022-09-29T10:04:12;3.10;;;2.87;;
17921;SDS011;9086;50.966;3.144;2022-09-29T10:06:41;5.77;;;2.83;;
17921;SDS011;9086;50.966;3.144;2022-09-29T10:09:11;3.30;;;3.10;;
17921;SDS011;9086;50.966;3.144;2022-09-29T10:11:39;3.73;;;3.00;;
17921;SDS011;9086;50.966;3.144;2022-09-29T10:14:13;3.67;;;3.17;;
17921;SDS011;9086;50.966;3.144;2022-09-29T10:16:50;3.17;;;2.77;;
17921;SDS011;9086;50.966;3.144;2022-09-29T10:19:20;2.13;;;2.03;;
17921;SDS011;9086;50.966;3.144;2022-09-29T10:21:47;2.43;;;1.60;;
17921;SDS011;9086;50.966;3.144;2022-09-29T10:24:27;2.23;;;1.20;;
17921;SDS011;9086;50.966;3.144;2022-09-29T10:26:54;1.70;;;1.60;;
17921;SDS011;9086;50.966;3.144;2022-09-29T10:29:37;1.77;;;1.60;;
17921;SDS011;9086;50.966;3.144;2022-09-29T10:34:30;1.23;;;1.23;;
17921;SDS011;9086;50.966;3.144;2022-09-29T10:36:58;2.30;;;1.13;;
17921;SDS011;9086;50.966;3.144;2022-09-29T10:39:32;2.50;;;1.33;;
17921;SDS011;9086;50.966;3.144;2022-09-29T10:41:59;1.37;;;1.30;;
17921;SDS011;9086;50.966;3.144;2022-09-29T10:44:29;2.60;;;1.70;;
17921;SDS011;9086;50.966;3.144;2022-09-29T10:46:55;1.43;;;1.10;;
17921;SDS011;9086;50.966;3.144;2022-09-29T10:49:23;1.83;;;1.10;;
17921;SDS011;9086;50.966;3.144;2022-09-29T10:54:18;2.23;;;1.23;;
17921;SDS011;9086;50.966;3.144;2022-09-29T10:56:47;3.80;;;1.30;;
17921;SDS011;9086;50.966;3.144;2022-09-29T10:59:14;3.83;;;1.40;;
17921;SDS011;9086;50.966;3.144;2022-09-29T11:01:45;2.23;;;1.30;;
17921;SDS011;9086;50.966;3.144;2022-09-29T11:04:32;2.23;;;1.30;;
17921;SDS011;9086;50.966;3.144;2022-09-29T11:07:07;1.43;;;1.30;;
17921;SDS011;9086;50.966;3.144;2022-09-29T11:09:43;1.30;;;1.20;;
17921;SDS011;9086;50.966;3.144;2022-09-29T11:14:58;2.37;;;1.40;;
17921;SDS011;9086;50.966;3.144;2022-09-29T11:17:26;3.80;;;1.20;;
17921;SDS011;9086;50.966;3.144;2022-09-29T11:19:53;2.17;;;1.07;;
17921;SDS011;9086;50.966;3.144;2022-09-29T11:22:24;2.00;;;1.20;;
17921;SDS011;9086;50.966;3.144;2022-09-29T11:27:32;3.00;;;1.17;;
17921;SDS011;9086;50.966;3.144;2022-09-29T11:30:09;0.73;;;0.70;;
17921;SDS011;9086;50.966;3.144;2022-09-29T11:32:52;0.30;;;0.30;;
17921;SDS011;9086;50.966;3.144;2022-09-29T11:37:55;0.73;;;0.70;;
17921;SDS011;9086;50.966;3.144;2022-09-29T11:43:35;1.53;;;0.60;;
17921;SDS011;9086;50.966;3.144;2022-09-29T11:54:02;2.27;;;1.00;;
17921;SDS011;9086;50.966;3.144;2022-09-29T11:56:37;1.67;;;0.77;;
17921;SDS011;9086;50.966;3.144;2022-09-29T12:01:42;1.73;;;1.10;;
17921;SDS011;9086;50.966;3.144;2022-09-29T12:06:49;2.60;;;2.40;;
17921;SDS011;9086;50.966;3.144;2022-09-29T12:09:30;1.80;;;1.70;;
17921;SDS011;9086;50.966;3.144;2022-09-29T12:12:11;1.53;;;1.20;;
17921;SDS011;9086;50.966;3.144;2022-09-29T12:15:02;1.13;;;1.00;;
17921;SDS011;9086;50.966;3.144;2022-09-29T12:17:25;1.40;;;1.10;;
17921;SDS011;9086;50.966;3.144;2022-09-29T12:19:57;1.80;;;0.80;;
17921;SDS011;9086;50.966;3.144;2022-09-29T12:22:24;2.77;;;1.07;;
17921;SDS011;9086;50.966;3.144;2022-09-29T12:24:51;1.63;;;0.77;;
17921;SDS011;9086;50.966;3.144;2022-09-29T12:27:26;0.80;;;0.60;;
17921;SDS011;9086;50.966;3.144;2022-09-29T12:29:57;0.80;;;0.67;;
17921;SDS011;9086;50.966;3.144;2022-09-29T12:32:26;0.90;;;0.80;;
17921;SDS011;9086;50.966;3.144;2022-09-29T12:35:03;1.67;;;0.93;;
17921;SDS011;9086;50.966;3.144;2022-09-29T12:37:33;1.67;;;0.97;;
17921;SDS011;9086;50.966;3.144;2022-09-29T12:40:21;1.43;;;1.00;;
17921;SDS011;9086;50.966;3.144;2022-09-29T12:51:02;2.00;;;1.20;;
17921;SDS011;9086;50.966;3.144;2022-09-29T12:58:34;1.37;;;1.27;;
17921;SDS011;9086;50.966;3.144;2022-09-29T13:01:08;2.30;;;2.10;;
17921;SDS011;9086;50.966;3.144;2022-09-29T13:03:46;1.77;;;1.40;;
17921;SDS011;9086;50.966;3.144;2022-09-29T13:21:50;1.40;;;1.30;;
17921;SDS011;9086;50.966;3.144;2022-09-29T13:29:30;1.13;;;1.10;;
17921;SDS011;9086;50.966;3.144;2022-09-29T13:31:56;1.40;;;0.93;;
17921;SDS011;9086;50.966;3.144;2022-09-29T13:34:26;2.20;;;1.10;;
17921;SDS011;9086;50.966;3.144;2022-09-29T13:36:53;1.77;;;0.90;;
17921;SDS011;9086;50.966;3.144;2022-09-29T13:39:29;0.97;;;0.60;;
17921;SDS011;9086;50.966;3.144;2022-09-29T13:41:55;0.70;;;0.70;;
17921;SDS011;9086;50.966;3.144;2022-09-29T13:44:42;1.80;;;1.07;;
17921;SDS011;9086;50.966;3.144;2022-09-29T13:47:30;1.17;;;0.70;;
17921;SDS011;9086;50.966;3.144;2022-09-29T13:50:00;1.93;;;1.00;;
17921;SDS011;9086;50.966;3.144;2022-09-29T13:52:28;0.63;;;0.63;;
17921;SDS011;9086;50.966;3.144;2022-09-29T13:54:55;1.70;;;1.40;;
17921;SDS011;9086;50.966;3.144;2022-09-29T13:57:49;1.30;;;1.10;;
17921;SDS011;9086;50.966;3.144;2022-09-29T14:00:16;1.23;;;1.10;;
17921;SDS011;9086;50.966;3.144;2022-09-29T14:02:43;1.70;;;1.10;;
17921;SDS011;9086;50.966;3.144;2022-09-29T14:08:06;2.03;;;0.77;;
17921;SDS011;9086;50.966;3.144;2022-09-29T14:13:03;1.70;;;1.40;;
17921;SDS011;9086;50.966;3.144;2022-09-29T14:15:34;1.87;;;1.20;;
17921;SDS011;9086;50.966;3.144;2022-09-29T14:18:04;1.30;;;1.20;;
17921;SDS011;9086;50.966;3.144;2022-09-29T14:20:32;2.53;;;1.10;;
17921;SDS011;9086;50.966;3.144;2022-09-29T14:23:00;2.00;;;1.10;;
17921;SDS011;9086;50.966;3.144;2022-09-29T14:25:28;1.90;;;0.90;;
17921;SDS011;9086;50.966;3.144;2022-09-29T14:27:58;1.10;;;1.10;;
17921;SDS011;9086;50.966;3.144;2022-09-29T14:32:58;1.03;;;1.00;;
17921;SDS011;9086;50.966;3.144;2022-09-29T14:35:29;1.37;;;1.10;;
17921;SDS011;9086;50.966;3.144;2022-09-29T14:38:02;2.27;;;1.00;;
17921;SDS011;9086;50.966;3.144;2022-09-29T14:40:29;2.43;;;1.10;;
17921;SDS011;9086;50.966;3.144;2022-09-29T14:43:14;1.13;;;1.10;;
17921;SDS011;9086;50.966;3.144;2022-09-29T14:48:35;2.13;;;1.27;;
17921;SDS011;9086;50.966;3.144;2022-09-29T14:51:58;1.37;;;1.20;;
17921;SDS011;9086;50.966;3.144;2022-09-29T15:02:23;1.67;;;1.00;;
17921;SDS011;9086;50.966;3.144;2022-09-29T15:04:50;4.77;;;1.70;;
17921;SDS011;9086;50.966;3.144;2022-09-29T15:07:35;2.90;;;1.77;;
17921;SDS011;9086;50.966;3.144;2022-09-29T15:10:05;1.33;;;1.23;;
17921;SDS011;9086;50.966;3.144;2022-09-29T15:12:44;1.20;;;1.10;;
17921;SDS011;9086;50.966;3.144;2022-09-29T15:15:54;1.10;;;1.00;;
17921;SDS011;9086;50.966;3.144;2022-09-29T15:18:10;1.90;;;1.80;;
17921;SDS011;9086;50.966;3.144;2022-09-29T15:23:26;2.23;;;1.80;;
17921;SDS011;9086;50.966;3.144;2022-09-29T15:25:55;2.07;;;0.80;;
17921;SDS011;9086;50.966;3.144;2022-09-29T15:30:52;1.80;;;1.60;;
17921;SDS011;9086;50.966;3.144;2022-09-29T15:33:20;2.67;;;1.70;;
17921;SDS011;9086;50.966;3.144;2022-09-29T15:35:55;2.63;;;0.90;;
17921;SDS011;9086;50.966;3.144;2022-09-29T15:40:54;3.07;;;2.53;;
17921;SDS011;9086;50.966;3.144;2022-09-29T15:43:22;1.37;;;1.27;;
17921;SDS011;9086;50.966;3.144;2022-09-29T15:45:56;0.97;;;0.90;;
17921;SDS011;9086;50.966;3.144;2022-09-29T15:48:23;3.20;;;1.70;;
17921;SDS011;9086;50.966;3.144;2022-09-29T15:50:49;1.30;;;1.20;;
17921;SDS011;9086;50.966;3.144;2022-09-29T15:53:19;1.20;;;0.90;;
17921;SDS011;9086;50.966;3.144;2022-09-29T15:55:46;3.53;;;1.70;;
17921;SDS011;9086;50.966;3.144;2022-09-29T16:00:55;2.07;;;1.40;;
17921;SDS011;9086;50.966;3.144;2022-09-29T16:03:24;2.80;;;1.63;;
17921;SDS011;9086;50.966;3.144;2022-09-29T16:05:59;1.07;;;0.90;;
17921;SDS011;9086;50.966;3.144;2022-09-29T16:08:26;0.40;;;0.40;;
17921;SDS011;9086;50.966;3.144;2022-09-29T16:10:54;0.73;;;0.43;;
17921;SDS011;9086;50.966;3.144;2022-09-29T16:13:22;0.70;;;0.70;;
17921;SDS011;9086;50.966;3.144;2022-09-29T16:15:51;2.53;;;0.30;;
17921;SDS011;9086;50.966;3.144;2022-09-29T16:18:20;0.70;;;0.60;;
17921;SDS011;9086;50.966;3.144;2022-09-29T16:20:47;0.40;;;0.40;;
17921;SDS011;9086;50.966;3.144;2022-09-29T16:25:40;0.97;;;0.70;;
17921;SDS011;9086;50.966;3.144;2022-09-29T16:28:56;0.60;;;0.60;;
17921;SDS011;9086;50.966;3.144;2022-09-29T16:31:05;1.57;;;1.40;;
17921;SDS011;9086;50.966;3.144;2022-09-29T16:33:35;2.23;;;1.63;;
17921;SDS011;9086;50.966;3.144;2022-09-29T16:36:02;2.00;;;1.80;;
17921;SDS011;9086;50.966;3.144;2022-09-29T16:38:31;7.47;;;4.10;;
17921;SDS011;9086;50.966;3.144;2022-09-29T16:41:00;3.13;;;2.47;;
17921;SDS011;9086;50.966;3.144;2022-09-29T16:43:32;1.73;;;1.63;;
17921;SDS011;9086;50.966;3.144;2022-09-29T16:46:00;1.37;;;1.27;;
17921;SDS011;9086;50.966;3.144;2022-09-29T16:48:30;1.87;;;1.77;;
17921;SDS011;9086;50.966;3.144;2022-09-29T16:51:00;1.50;;;1.07;;
17921;SDS011;9086;50.966;3.144;2022-09-29T16:58:40;3.20;;;2.70;;
17921;SDS011;9086;50.966;3.144;2022-09-29T17:01:07;2.90;;;2.70;;
17921;SDS011;9086;50.966;3.144;2022-09-29T17:03:34;4.73;;;2.60;;
17921;SDS011;9086;50.966;3.144;2022-09-29T17:06:00;3.37;;;2.77;;
17921;SDS011;9086;50.966;3.144;2022-09-29T17:08:29;2.77;;;2.43;;
17921;SDS011;9086;50.966;3.144;2022-09-29T17:10:59;3.47;;;2.20;;
17921;SDS011;9086;50.966;3.144;2022-09-29T17:13:27;3.63;;;2.50;;
17921;SDS011;9086;50.966;3.144;2022-09-29T17:15:55;2.87;;;2.67;;
17921;SDS011;9086;50.966;3.144;2022-09-29T17:18:21;2.67;;;2.47;;
17921;SDS011;9086;50.966;3.144;2022-09-29T17:20:49;3.23;;;2.00;;
17921;SDS011;9086;50.966;3.144;2022-09-29T17:23:15;2.30;;;2.10;;
17921;SDS011;9086;50.966;3.144;2022-09-29T17:25:42;3.23;;;2.07;;
17921;SDS011;9086;50.966;3.144;2022-09-29T17:28:13;2.90;;;2.67;;
17921;SDS011;9086;50.966;3.144;2022-09-29T17:30:41;6.83;;;3.90;;
17921;SDS011;9086;50.966;3.144;2022-09-29T17:33:08;3.30;;;3.00;;
17921;SDS011;9086;50.966;3.144;2022-09-29T17:35:36;2.73;;;2.53;;
17921;SDS011;9086;50.966;3.144;2022-09-29T17:38:03;4.20;;;3.10;;
17921;SDS011;9086;50.966;3.144;2022-09-29T17:40:36;3.60;;;3.03;;
17921;SDS011;9086;50.966;3.144;2022-09-29T17:43:04;4.47;;;2.97;;